createdAt,value
2023-03-17T00:01:56.252Z,98430.34
2023-03-17T00:04:24.667Z,98426.44
2023-03-17T00:06:53.138Z,98423.97
2023-03-17T00:09:20.992Z,98441.91
2023-03-17T00:11:48.434Z,98429.28
2023-03-17T00:14:15.449Z,98444.00
2023-03-17T00:16:49.869Z,98441.31
2023-03-17T00:19:37.181Z,98423.75
2023-03-17T00:22:06.345Z,98431.97
2023-03-17T00:24:33.828Z,98436.72
2023-03-17T00:27:01.145Z,98439.38
2023-03-17T00:29:28.305Z,98434.97
2023-03-17T00:31:57.494Z,98419.97
2023-03-17T00:34:24.550Z,98415.16
2023-03-17T00:36:52.042Z,98414.81
2023-03-17T00:39:19.570Z,98429.19
2023-03-17T00:44:12.503Z,98422.81
2023-03-17T00:46:41.980Z,98416.31
2023-03-17T00:49:19.851Z,98426.75
2023-03-17T00:51:47.889Z,98428.59
2023-03-17T00:54:15.789Z,98434.56
2023-03-17T00:56:44.544Z,98426.03
2023-03-17T00:59:26.820Z,98419.16
2023-03-17T01:01:54.759Z,98424.84
2023-03-17T01:04:21.916Z,98411.56
2023-03-17T01:06:50.726Z,98434.72
2023-03-17T01:09:20.528Z,98432.28
2023-03-17T01:11:48.874Z,98434.22
2023-03-17T01:14:16.948Z,98418.63
2023-03-17T01:16:45.033Z,98423.38
2023-03-17T01:19:15.215Z,98420.84
2023-03-17T01:21:42.798Z,98427.03
2023-03-17T01:24:10.999Z,98434.53
2023-03-17T01:26:39.180Z,98434.94
2023-03-17T01:29:08.094Z,98436.50
2023-03-17T01:31:35.666Z,98439.22
2023-03-17T01:34:03.511Z,98434.69
2023-03-17T01:36:30.898Z,98434.69
2023-03-17T01:38:58.837Z,98441.91
2023-03-17T01:41:27.491Z,98448.78
2023-03-17T01:43:54.640Z,98443.72
2023-03-17T01:46:30.869Z,98432.88
2023-03-17T01:49:10.569Z,98450.16
2023-03-17T01:52:03.118Z,98438.53
2023-03-17T01:54:36.042Z,98442.56
2023-03-17T01:57:16.641Z,98443.88
2023-03-17T01:59:53.708Z,98452.91
2023-03-17T02:02:26.618Z,98450.16
2023-03-17T02:04:54.101Z,98445.19
2023-03-17T02:07:23.409Z,98440.53
2023-03-17T02:09:52.741Z,98440.84
2023-03-17T02:12:22.615Z,98450.84
2023-03-17T02:14:49.917Z,98451.44
2023-03-17T02:17:16.880Z,98442.34
2023-03-17T02:19:44.026Z,98445.09
2023-03-17T02:22:11.645Z,98454.63
2023-03-17T02:24:43.566Z,98457.44
2023-03-17T02:27:31.348Z,98460.75
2023-03-17T02:29:58.442Z,98462.03
2023-03-17T02:32:25.608Z,98468.66
2023-03-17T02:34:55.570Z,98467.25
2023-03-17T02:37:22.653Z,98468.47
2023-03-17T02:39:49.658Z,98478.47
2023-03-17T02:42:17.246Z,98487.06
2023-03-17T02:44:44.213Z,98488.06
2023-03-17T02:47:11.979Z,98480.34
2023-03-17T02:49:40.902Z,98472.91
2023-03-17T02:52:08.629Z,98479.91
2023-03-17T02:54:36.282Z,98493.66
2023-03-17T02:57:03.254Z,98485.34
2023-03-17T02:59:30.860Z,98488.91
2023-03-17T03:01:57.885Z,98495.72
2023-03-17T03:04:24.877Z,98502.28
2023-03-17T03:06:52.591Z,98497.47
2023-03-17T03:09:20.242Z,98492.59
2023-03-17T03:11:48.024Z,98479.94
2023-03-17T03:14:15.090Z,98505.56
2023-03-17T03:16:42.124Z,98506.59
2023-03-17T03:19:09.775Z,98507.31
2023-03-17T03:21:37.375Z,98503.88
2023-03-17T03:24:05.664Z,98509.19
2023-03-17T03:26:33.030Z,98514.19
2023-03-17T03:29:00.303Z,98519.00
2023-03-17T03:31:28.017Z,98508.50
2023-03-17T03:33:55.431Z,98516.84
2023-03-17T03:36:22.763Z,98512.28
2023-03-17T03:38:50.029Z,98521.41
2023-03-17T03:41:17.015Z,98519.88
2023-03-17T03:43:44.059Z,98527.75
2023-03-17T03:46:11.181Z,98514.19
2023-03-17T03:48:38.221Z,98522.13
2023-03-17T03:51:05.501Z,98519.34
2023-03-17T03:53:32.974Z,98520.72
2023-03-17T03:56:00.215Z,98521.41
2023-03-17T03:58:27.243Z,98517.53
2023-03-17T04:00:54.401Z,98528.94
2023-03-17T04:03:21.789Z,98527.06
2023-03-17T04:05:48.848Z,98535.22
2023-03-17T04:08:16.728Z,98533.22
2023-03-17T04:10:43.724Z,98535.47
2023-03-17T04:13:10.732Z,98543.38
2023-03-17T04:15:37.826Z,98549.06
2023-03-17T04:18:05.516Z,98550.31
2023-03-17T04:20:33.190Z,98546.81
2023-03-17T04:23:00.596Z,98559.72
2023-03-17T04:25:27.807Z,98558.47
2023-03-17T04:27:54.868Z,98556.00
2023-03-17T04:30:22.309Z,98550.91
2023-03-17T04:32:49.367Z,98546.56
2023-03-17T04:35:19.009Z,98567.13
2023-03-17T04:37:46.728Z,98554.28
2023-03-17T04:40:14.619Z,98560.84
2023-03-17T04:42:42.032Z,98559.78
2023-03-17T04:45:11.685Z,98567.22
2023-03-17T04:47:39.615Z,98578.31
2023-03-17T04:50:09.039Z,98575.13
2023-03-17T04:52:37.274Z,98584.00
2023-03-17T04:55:08.492Z,98585.03
2023-03-17T04:57:36.366Z,98577.63
2023-03-17T05:00:07.852Z,98568.78
2023-03-17T05:02:35.017Z,98588.22
2023-03-17T05:05:02.340Z,98587.44
2023-03-17T05:07:29.473Z,98591.50
2023-03-17T05:09:57.286Z,98600.44
2023-03-17T05:12:24.432Z,98594.78
2023-03-17T05:14:51.584Z,98595.91
2023-03-17T05:17:18.689Z,98600.13
2023-03-17T05:19:47.180Z,98602.94
2023-03-17T05:22:14.174Z,98603.56
2023-03-17T05:24:41.158Z,98604.84
2023-03-17T05:27:08.256Z,98616.75
2023-03-17T05:29:35.256Z,98609.13
2023-03-17T05:32:02.232Z,98605.84
2023-03-17T05:34:29.211Z,98610.16
2023-03-17T05:36:56.198Z,98613.84
2023-03-17T05:39:23.228Z,98610.56
2023-03-17T05:41:51.392Z,98605.41
2023-03-17T05:44:18.474Z,98613.16
2023-03-17T05:46:46.214Z,98615.75
2023-03-17T05:49:13.362Z,98619.66
2023-03-17T05:51:42.077Z,98626.00
2023-03-17T05:54:09.083Z,98618.69
2023-03-17T05:56:36.157Z,98616.63
2023-03-17T05:59:05.267Z,98621.09
2023-03-17T06:01:32.612Z,98630.94
2023-03-17T06:04:01.960Z,98632.38
2023-03-17T06:06:29.697Z,98637.50
2023-03-17T06:08:56.906Z,98633.28
2023-03-17T06:11:24.075Z,98649.56
2023-03-17T06:13:53.500Z,98646.88
2023-03-17T06:16:21.076Z,98653.97
2023-03-17T06:18:48.835Z,98655.38
2023-03-17T06:21:16.038Z,98653.81
2023-03-17T06:23:43.746Z,98660.00
2023-03-17T06:26:11.208Z,98664.09
2023-03-17T06:28:38.279Z,98668.72
2023-03-17T06:31:07.333Z,98667.59
2023-03-17T06:33:35.553Z,98673.81
2023-03-17T06:36:03.459Z,98671.31
2023-03-17T06:38:30.599Z,98674.97
2023-03-17T06:40:58.170Z,98677.75
2023-03-17T06:43:25.514Z,98682.31
2023-03-17T06:45:52.868Z,98697.13
2023-03-17T06:48:20.050Z,98685.84
2023-03-17T06:50:47.984Z,98682.84
2023-03-17T06:53:15.010Z,98693.81
2023-03-17T06:55:42.544Z,98697.63
2023-03-17T06:58:10.797Z,98699.72
2023-03-17T07:00:40.626Z,98707.47
2023-03-17T07:03:07.850Z,98711.25
2023-03-17T07:05:35.122Z,98710.38
2023-03-17T07:08:02.122Z,98717.94
2023-03-17T07:10:29.094Z,98711.50
2023-03-17T07:12:56.183Z,98706.94
2023-03-17T07:15:24.219Z,98705.66
2023-03-17T07:17:51.772Z,98715.56
2023-03-17T07:20:18.887Z,98717.63
2023-03-17T07:22:45.918Z,98711.88
2023-03-17T07:25:13.004Z,98726.47
2023-03-17T07:27:40.024Z,98712.16
2023-03-17T07:30:07.870Z,98711.47
2023-03-17T07:32:35.689Z,98722.09
2023-03-17T07:35:03.163Z,98718.06
2023-03-17T07:37:30.146Z,98718.56
2023-03-17T07:39:57.179Z,98707.19
2023-03-17T07:42:24.270Z,98705.09
2023-03-17T07:44:51.551Z,98711.38
2023-03-17T07:47:18.632Z,98715.22
2023-03-17T07:49:46.241Z,98708.81
2023-03-17T07:52:13.432Z,98706.94
2023-03-17T07:54:42.958Z,98706.25
2023-03-17T07:57:11.697Z,98702.41
2023-03-17T07:59:40.187Z,98708.78
2023-03-17T08:02:07.731Z,98705.22
2023-03-17T08:04:35.420Z,98713.91
2023-03-17T08:07:02.402Z,98723.22
2023-03-17T08:09:29.413Z,98706.69
2023-03-17T08:11:56.630Z,98710.38
2023-03-17T08:14:23.694Z,98707.03
2023-03-17T08:16:50.736Z,98698.84
2023-03-17T08:19:17.904Z,98687.75
2023-03-17T08:21:45.243Z,98702.53
2023-03-17T08:24:12.278Z,98697.09
2023-03-17T08:26:39.403Z,98697.16
2023-03-17T08:29:06.541Z,98696.97
2023-03-17T08:31:34.197Z,98708.91
2023-03-17T08:34:02.933Z,98690.91
2023-03-17T08:36:30.434Z,98683.47
2023-03-17T08:38:57.987Z,98693.16
2023-03-17T08:41:27.153Z,98691.34
2023-03-17T08:43:55.351Z,98706.50
2023-03-17T08:46:30.802Z,98709.00
2023-03-17T08:48:59.482Z,98716.69
2023-03-17T08:51:29.235Z,98715.47
2023-03-17T08:53:57.488Z,98715.59
2023-03-17T08:56:24.593Z,98730.13
2023-03-17T08:58:52.110Z,98703.81
2023-03-17T09:01:21.134Z,98713.16
2023-03-17T09:03:49.759Z,98709.88
2023-03-17T09:06:16.999Z,98712.66
2023-03-17T09:08:45.275Z,98713.72
2023-03-17T09:11:16.778Z,98711.38
2023-03-17T09:13:45.069Z,98701.81
2023-03-17T09:16:13.027Z,98699.69
2023-03-17T09:18:40.324Z,98711.09
2023-03-17T09:21:07.809Z,98703.41
2023-03-17T09:23:34.981Z,98706.84
2023-03-17T09:26:03.470Z,98697.66
2023-03-17T09:28:30.737Z,98700.09
2023-03-17T09:31:02.520Z,98700.84
2023-03-17T09:33:30.262Z,98694.81
2023-03-17T09:35:57.763Z,98685.88
2023-03-17T09:38:26.815Z,98684.31
2023-03-17T09:41:20.455Z,98688.59
2023-03-17T09:44:02.612Z,98689.91
2023-03-17T09:46:50.983Z,98692.81
2023-03-17T09:49:36.617Z,98692.03
2023-03-17T09:52:04.065Z,98685.22
2023-03-17T09:54:38.342Z,98690.50
2023-03-17T09:57:25.194Z,98689.63
2023-03-17T10:00:01.707Z,98677.88
2023-03-17T10:02:34.420Z,98698.03
2023-03-17T10:05:13.644Z,98687.38
2023-03-17T10:07:56.867Z,98683.03
2023-03-17T10:10:59.264Z,98669.88
2023-03-17T10:13:55.099Z,98684.84
2023-03-17T10:16:46.606Z,98674.16
2023-03-17T10:19:27.271Z,98662.16
2023-03-17T10:22:05.573Z,98671.19
2023-03-17T10:24:34.426Z,98653.34
2023-03-17T10:27:06.564Z,98651.88
2023-03-17T10:29:33.704Z,98682.44
2023-03-17T10:32:01.160Z,98674.47
2023-03-17T10:34:35.032Z,98683.94
2023-03-17T10:37:09.649Z,98672.56
2023-03-17T10:39:47.045Z,98672.63
2023-03-17T10:42:33.218Z,98673.69
2023-03-17T10:45:27.964Z,98664.66
2023-03-17T10:47:59.335Z,98659.31
2023-03-17T10:50:34.859Z,98651.75
2023-03-17T10:53:08.612Z,98658.50
2023-03-17T10:55:38.605Z,98652.59
2023-03-17T10:58:07.027Z,98650.25
2023-03-17T11:00:37.586Z,98644.84
2023-03-17T11:03:15.092Z,98631.56
2023-03-17T11:05:56.234Z,98625.19
2023-03-17T11:08:23.607Z,98632.56
2023-03-17T11:10:56.847Z,98628.81
2023-03-17T11:13:29.665Z,98636.72
2023-03-17T11:16:29.429Z,98635.03
2023-03-17T11:19:00.392Z,98610.94
2023-03-17T11:21:41.936Z,98625.66
2023-03-17T11:24:16.182Z,98592.69
2023-03-17T11:27:06.773Z,98605.03
2023-03-17T11:29:40.196Z,98602.31
2023-03-17T11:32:16.431Z,98596.72
2023-03-17T11:35:01.549Z,98592.34
2023-03-17T11:37:56.146Z,98593.66
2023-03-17T11:40:46.416Z,98583.81
2023-03-17T11:43:27.034Z,98581.03
2023-03-17T11:46:20.005Z,98571.97
2023-03-17T11:48:46.984Z,98571.56
2023-03-17T11:51:28.101Z,98583.31
2023-03-17T11:54:07.169Z,98569.56
2023-03-17T11:57:07.809Z,98553.75
2023-03-17T11:59:52.237Z,98562.41
2023-03-17T12:02:41.368Z,98558.69
2023-03-17T12:05:17.144Z,98566.97
2023-03-17T12:07:59.365Z,98551.84
2023-03-17T12:10:51.835Z,98545.19
2023-03-17T12:13:29.559Z,98540.34
2023-03-17T12:16:11.211Z,98542.91
2023-03-17T12:18:47.117Z,98534.81
2023-03-17T12:21:40.272Z,98542.03
2023-03-17T12:24:17.405Z,98516.53
2023-03-17T12:27:05.240Z,98527.44
2023-03-17T12:29:41.148Z,98531.84
2023-03-17T12:32:20.424Z,98526.50
2023-03-17T12:34:58.992Z,98521.81
2023-03-17T12:37:30.374Z,98524.75
2023-03-17T12:40:18.979Z,98541.84
2023-03-17T12:42:58.471Z,98520.78
2023-03-17T12:46:10.084Z,98521.59
2023-03-17T12:48:50.951Z,98520.78
2023-03-17T12:51:52.132Z,98514.25
2023-03-17T12:54:27.634Z,98528.91
2023-03-17T12:57:02.897Z,98523.03
2023-03-17T12:59:31.545Z,98525.00
2023-03-17T13:02:26.284Z,98520.53
2023-03-17T13:05:01.106Z,98544.66
2023-03-17T13:07:41.362Z,98539.53
2023-03-17T13:10:23.192Z,98521.75
2023-03-17T13:13:06.779Z,98515.81
2023-03-17T13:15:37.442Z,98525.53
2023-03-17T13:18:16.410Z,98527.78
2023-03-17T13:20:59.628Z,98526.50
2023-03-17T13:23:48.835Z,98522.84
2023-03-17T13:26:21.068Z,98525.59
2023-03-17T13:28:51.202Z,98547.78
2023-03-17T13:31:27.250Z,98548.31
2023-03-17T13:33:57.856Z,98530.75
2023-03-17T13:36:42.950Z,98531.91
2023-03-17T13:39:22.344Z,98530.09
2023-03-17T13:42:15.670Z,98545.31
2023-03-17T13:44:59.322Z,98525.25
2023-03-17T13:47:40.180Z,98543.75
2023-03-17T13:50:16.703Z,98528.66
2023-03-17T13:52:49.854Z,98538.84
2023-03-17T13:55:23.697Z,98530.84
2023-03-17T13:58:13.884Z,98532.22
2023-03-17T14:00:44.662Z,98518.41
2023-03-17T14:03:29.353Z,98526.94
2023-03-17T14:05:57.763Z,98531.34
2023-03-17T14:08:32.131Z,98544.78
2023-03-17T14:11:02.001Z,98542.38
2023-03-17T14:13:53.926Z,98534.09
2023-03-17T14:16:28.277Z,98523.16
2023-03-17T14:19:11.261Z,98517.97
2023-03-17T14:21:38.374Z,98510.88
2023-03-17T14:24:25.963Z,98510.34
2023-03-17T14:26:53.714Z,98504.84
2023-03-17T14:29:29.886Z,98502.16
2023-03-17T14:32:24.912Z,98507.97
2023-03-17T14:34:59.651Z,98510.78
2023-03-17T14:37:28.321Z,98507.72
2023-03-17T14:39:57.839Z,98503.13
2023-03-17T14:42:30.045Z,98499.00
2023-03-17T14:45:06.840Z,98506.28
2023-03-17T14:47:40.014Z,98515.31
2023-03-17T14:50:18.270Z,98500.88
2023-03-17T14:52:45.624Z,98516.00
2023-03-17T14:55:16.204Z,98504.13
2023-03-17T14:57:49.479Z,98513.59
2023-03-17T15:00:36.572Z,98519.66
2023-03-17T15:03:16.229Z,98518.25
2023-03-17T15:05:45.697Z,98511.22
2023-03-17T15:08:43.588Z,98515.09
2023-03-17T15:11:17.766Z,98517.56
2023-03-17T15:13:45.211Z,98522.00
2023-03-17T15:16:23.416Z,98505.06
2023-03-17T15:19:02.363Z,98507.56
2023-03-17T15:21:35.279Z,98510.06
2023-03-17T15:24:25.023Z,98508.66
2023-03-17T15:27:03.171Z,98512.56
2023-03-17T15:29:30.510Z,98521.00
2023-03-17T15:32:07.460Z,98509.72
2023-03-17T15:34:34.497Z,98509.97
2023-03-17T15:37:01.743Z,98515.00
2023-03-17T15:39:28.782Z,98513.22
2023-03-17T15:41:55.949Z,98515.59
2023-03-17T15:44:22.954Z,98512.31
2023-03-17T15:46:49.969Z,98518.25
2023-03-17T15:49:16.944Z,98527.38
2023-03-17T15:51:45.960Z,98530.97
2023-03-17T15:54:16.034Z,98535.06
2023-03-17T15:56:43.548Z,98524.22
2023-03-17T15:59:12.252Z,98533.66
2023-03-17T16:01:40.125Z,98523.63
2023-03-17T16:04:07.507Z,98529.53
2023-03-17T16:06:35.770Z,98542.97
2023-03-17T16:09:03.607Z,98553.28
2023-03-17T16:11:31.654Z,98545.59
2023-03-17T16:14:00.043Z,98554.81
2023-03-17T16:16:30.419Z,98555.06
2023-03-17T16:18:58.606Z,98554.31
2023-03-17T16:21:25.859Z,98551.66
2023-03-17T16:23:53.013Z,98557.84
2023-03-17T16:26:19.985Z,98558.59
2023-03-17T16:28:47.889Z,98550.13
2023-03-17T16:31:22.294Z,98560.31
2023-03-17T16:33:50.847Z,98567.78
2023-03-17T16:36:19.776Z,98556.38
2023-03-17T16:38:47.879Z,98559.00
2023-03-17T16:41:20.022Z,98575.22
2023-03-17T16:43:53.896Z,98569.97
2023-03-17T16:46:22.107Z,98564.81
2023-03-17T16:48:50.187Z,98574.59
2023-03-17T16:51:17.365Z,98565.78
2023-03-17T16:53:45.035Z,98554.06
2023-03-17T16:56:17.532Z,98568.13
2023-03-17T16:58:46.074Z,98567.78
2023-03-17T17:01:19.588Z,98579.78
2023-03-17T17:03:47.763Z,98572.25
2023-03-17T17:06:15.348Z,98568.88
2023-03-17T17:08:44.187Z,98564.97
2023-03-17T17:11:15.776Z,98562.47
2023-03-17T17:13:44.884Z,98567.88
2023-03-17T17:16:31.272Z,98567.59
2023-03-17T17:18:59.461Z,98576.25
2023-03-17T17:21:28.042Z,98562.22
2023-03-17T17:23:55.951Z,98582.59
2023-03-17T17:26:23.465Z,98577.03
2023-03-17T17:28:50.777Z,98581.63
2023-03-17T17:31:17.933Z,98590.38
2023-03-17T17:33:45.376Z,98578.41
2023-03-17T17:36:16.676Z,98591.19
2023-03-17T17:38:44.223Z,98583.72
2023-03-17T17:41:12.334Z,98582.22
2023-03-17T17:43:39.933Z,98586.81
2023-03-17T17:46:14.314Z,98594.44
2023-03-17T17:48:41.746Z,98598.78
2023-03-17T17:51:08.736Z,98601.09
2023-03-17T17:53:37.390Z,98602.22
2023-03-17T17:56:05.000Z,98607.19
2023-03-17T17:58:32.730Z,98601.19
2023-03-17T18:00:59.955Z,98609.72
2023-03-17T18:03:27.390Z,98608.13
2023-03-17T18:05:56.690Z,98605.56
2023-03-17T18:08:24.901Z,98620.03
2023-03-17T18:10:52.468Z,98614.75
2023-03-17T18:13:19.965Z,98620.75
2023-03-17T18:15:47.159Z,98624.91
2023-03-17T18:18:14.247Z,98620.47
2023-03-17T18:20:41.322Z,98620.31
2023-03-17T18:23:08.715Z,98624.47
2023-03-17T18:25:37.334Z,98624.38
2023-03-17T18:28:05.143Z,98617.59
2023-03-17T18:30:35.299Z,98631.69
2023-03-17T18:33:16.792Z,98631.63
2023-03-17T18:35:47.616Z,98629.59
2023-03-17T18:38:14.712Z,98637.22
2023-03-17T18:40:43.234Z,98631.94
2023-03-17T18:43:10.505Z,98642.41
2023-03-17T18:45:38.057Z,98638.41
2023-03-17T18:48:05.092Z,98637.72
2023-03-17T18:50:32.395Z,98635.75
2023-03-17T18:52:59.650Z,98634.13
2023-03-17T18:55:26.713Z,98642.59
2023-03-17T18:57:55.155Z,98641.94
2023-03-17T19:00:25.387Z,98650.09
2023-03-17T19:02:53.001Z,98648.75
2023-03-17T19:05:20.612Z,98648.66
2023-03-17T19:07:47.819Z,98654.75
2023-03-17T19:10:15.378Z,98661.72
2023-03-17T19:12:43.168Z,98665.03
2023-03-17T19:15:10.901Z,98654.03
2023-03-17T19:17:38.150Z,98654.66
2023-03-17T19:20:06.485Z,98660.72
2023-03-17T19:22:34.187Z,98662.13
2023-03-17T19:25:01.481Z,98651.81
2023-03-17T19:27:28.526Z,98654.22
2023-03-17T19:29:55.564Z,98655.34
2023-03-17T19:32:22.616Z,98660.81
2023-03-17T19:34:49.873Z,98659.16
2023-03-17T19:37:17.072Z,98660.88
2023-03-17T19:39:47.202Z,98662.00
2023-03-17T19:42:14.442Z,98667.50
2023-03-17T19:44:41.421Z,98669.09
2023-03-17T19:47:08.680Z,98673.63
2023-03-17T19:49:37.718Z,98663.75
2023-03-17T19:52:06.619Z,98670.84
2023-03-17T19:54:34.538Z,98673.69
2023-03-17T19:57:01.572Z,98663.28
2023-03-17T19:59:28.657Z,98664.44
2023-03-17T20:01:55.927Z,98670.47
2023-03-17T20:04:23.353Z,98674.13
2023-03-17T20:06:55.699Z,98669.31
2023-03-17T20:09:27.394Z,98673.06
2023-03-17T20:11:56.321Z,98674.88
2023-03-17T20:14:23.721Z,98672.19
2023-03-17T20:16:52.076Z,98676.59
2023-03-17T20:19:19.486Z,98670.84
2023-03-17T20:21:46.486Z,98678.41
2023-03-17T20:24:14.923Z,98670.47
2023-03-17T20:26:43.573Z,98678.88
2023-03-17T20:29:12.922Z,98678.75
2023-03-17T20:31:40.172Z,98685.84
2023-03-17T20:34:08.093Z,98680.75
2023-03-17T20:36:35.327Z,98676.41
2023-03-17T20:39:02.338Z,98682.94
2023-03-17T20:41:29.690Z,98679.41
2023-03-17T20:43:56.851Z,98677.25
2023-03-17T20:46:26.055Z,98684.63
2023-03-17T20:48:58.869Z,98684.81
2023-03-17T20:51:27.490Z,98685.94
2023-03-17T20:53:55.382Z,98684.50
2023-03-17T20:56:24.370Z,98679.19
2023-03-17T20:58:53.422Z,98673.38
2023-03-17T21:01:21.876Z,98680.31
2023-03-17T21:03:50.165Z,98676.19
2023-03-17T21:06:18.484Z,98676.00
2023-03-17T21:08:46.390Z,98677.22
2023-03-17T21:11:17.427Z,98681.53
2023-03-17T21:13:44.916Z,98684.09
2023-03-17T21:16:18.256Z,98687.00
2023-03-17T21:18:45.719Z,98676.84
2023-03-17T21:21:13.001Z,98683.19
2023-03-17T21:23:41.514Z,98678.63
2023-03-17T21:26:11.804Z,98681.69
2023-03-17T21:28:41.803Z,98674.09
2023-03-17T21:31:09.949Z,98671.50
2023-03-17T21:33:37.340Z,98667.59
2023-03-17T21:36:05.997Z,98671.50
2023-03-17T21:38:33.174Z,98678.63
2023-03-17T21:41:20.405Z,98664.75
2023-03-17T21:43:47.749Z,98672.47
2023-03-17T21:46:14.889Z,98678.50
2023-03-17T21:48:41.921Z,98674.19
2023-03-17T21:51:08.933Z,98669.72
2023-03-17T21:53:35.934Z,98669.97
2023-03-17T21:56:04.202Z,98675.75
2023-03-17T21:58:31.339Z,98671.94
2023-03-17T22:01:00.545Z,98667.28
2023-03-17T22:03:27.878Z,98660.47
2023-03-17T22:05:55.213Z,98675.16
2023-03-17T22:08:22.772Z,98662.50
2023-03-17T22:10:49.896Z,98673.69
2023-03-17T22:13:17.155Z,98662.69
2023-03-17T22:15:44.937Z,98672.50
2023-03-17T22:18:11.997Z,98672.59
2023-03-17T22:20:39.154Z,98673.38
2023-03-17T22:23:06.407Z,98665.69
2023-03-17T22:25:33.429Z,98674.38
2023-03-17T22:28:00.476Z,98664.47
2023-03-17T22:30:27.572Z,98666.88
2023-03-17T22:32:54.653Z,98669.75
2023-03-17T22:35:23.558Z,98669.97
2023-03-17T22:37:50.771Z,98668.28
2023-03-17T22:40:19.333Z,98674.13
2023-03-17T22:42:46.971Z,98656.59
2023-03-17T22:45:14.574Z,98663.63
2023-03-17T22:47:41.922Z,98659.09
2023-03-17T22:50:09.617Z,98650.56
2023-03-17T22:52:37.385Z,98654.41
2023-03-17T22:55:05.264Z,98649.31
2023-03-17T22:57:32.936Z,98645.56
2023-03-17T23:00:01.385Z,98649.47
2023-03-17T23:02:28.392Z,98645.81
2023-03-17T23:04:55.605Z,98640.19
2023-03-17T23:07:22.802Z,98645.97
2023-03-17T23:09:49.819Z,98646.72
2023-03-17T23:12:18.026Z,98638.34
2023-03-17T23:14:45.264Z,98636.44
2023-03-17T23:17:14.699Z,98641.88
2023-03-17T23:19:41.746Z,98642.91
2023-03-17T23:22:09.031Z,98640.41
2023-03-17T23:24:39.010Z,98636.13
2023-03-17T23:27:06.367Z,98636.25
2023-03-17T23:29:33.551Z,98642.81
2023-03-17T23:32:01.572Z,98638.69
2023-03-17T23:34:28.653Z,98638.50
2023-03-17T23:36:55.878Z,98647.47
2023-03-17T23:39:22.999Z,98633.84
2023-03-17T23:41:50.291Z,98640.16
2023-03-17T23:44:17.454Z,98637.25
2023-03-17T23:46:45.430Z,98631.19
2023-03-17T23:49:12.503Z,98633.41
2023-03-17T23:51:40.980Z,98628.09
2023-03-17T23:54:08.623Z,98627.19
2023-03-17T23:56:36.224Z,98626.78
2023-03-17T23:59:04.260Z,98621.13
